createdAt,value
2018-02-25T00:01:28.855Z,96144.63
2018-02-25T00:03:57.282Z,96140.99
2018-02-25T00:06:25.617Z,96146.45
2018-02-25T00:08:53.946Z,96140.41
2018-02-25T00:11:22.252Z,96137.48
2018-02-25T00:13:50.614Z,96139.98
2018-02-25T00:16:19.012Z,96137.89
2018-02-25T00:18:47.307Z,96145.15
2018-02-25T00:21:15.672Z,96141.92
2018-02-25T00:23:43.982Z,96143.80
2018-02-25T00:26:12.333Z,96141.84
2018-02-25T00:28:40.643Z,96143.19
2018-02-25T00:31:09.038Z,96144.02
2018-02-25T00:33:37.439Z,96140.02
2018-02-25T00:36:05.796Z,96147.36
2018-02-25T00:38:34.175Z,96143.39
2018-02-25T00:41:02.486Z,96146.17
2018-02-25T00:43:30.968Z,96143.91
2018-02-25T00:45:59.271Z,96143.32
2018-02-25T00:48:27.613Z,96132.17
2018-02-25T00:50:55.960Z,96133.36
2018-02-25T00:53:24.336Z,96129.84
2018-02-25T00:55:52.673Z,96134.85
2018-02-25T00:58:21.014Z,96132.52
2018-02-25T01:00:49.346Z,96126.72
2018-02-25T01:03:17.753Z,96136.05
2018-02-25T01:05:46.079Z,96133.08
2018-02-25T01:08:14.547Z,96130.66
2018-02-25T01:10:42.927Z,96133.81
2018-02-25T01:13:11.311Z,96132.90
2018-02-25T01:15:39.835Z,96131.48
2018-02-25T01:18:08.151Z,96135.46
2018-02-25T01:20:36.507Z,96131.30
2018-02-25T01:23:04.831Z,96134.19
2018-02-25T01:25:33.197Z,96142.77
2018-02-25T01:28:01.576Z,96136.84
2018-02-25T01:30:30.019Z,96136.86
2018-02-25T01:32:58.344Z,96140.03
2018-02-25T01:35:26.674Z,96142.45
2018-02-25T01:37:55.012Z,96144.86
2018-02-25T01:40:23.331Z,96139.84
2018-02-25T01:42:51.699Z,96138.23
2018-02-25T01:45:20.016Z,96140.59
2018-02-25T01:47:48.403Z,96134.47
2018-02-25T01:50:16.707Z,96123.70
2018-02-25T01:52:45.055Z,96126.38
2018-02-25T01:55:13.429Z,96120.35
2018-02-25T01:57:41.772Z,96128.57
2018-02-25T02:00:11.066Z,96130.48
2018-02-25T02:02:40.280Z,96133.23
2018-02-25T02:05:08.602Z,96129.41
2018-02-25T02:07:37.062Z,96128.75
2018-02-25T02:10:05.367Z,96127.94
2018-02-25T02:12:33.709Z,96133.62
2018-02-25T02:15:02.175Z,96133.09
2018-02-25T02:17:30.531Z,96134.05
2018-02-25T02:19:58.859Z,96132.72
2018-02-25T02:22:27.216Z,96122.23
2018-02-25T02:24:55.540Z,96127.61
2018-02-25T02:27:23.884Z,96130.04
2018-02-25T02:29:52.219Z,96129.92
2018-02-25T02:32:20.539Z,96132.14
2018-02-25T02:34:48.883Z,96123.86
2018-02-25T02:37:17.216Z,96118.20
2018-02-25T02:39:45.560Z,96131.36
2018-02-25T02:42:13.871Z,96130.17
2018-02-25T02:44:42.202Z,96120.80
2018-02-25T02:47:10.536Z,96121.17
2018-02-25T02:49:38.940Z,96123.25
2018-02-25T02:52:07.255Z,96125.14
2018-02-25T02:54:35.741Z,96116.44
2018-02-25T02:57:04.087Z,96125.44
2018-02-25T02:59:32.415Z,96122.58
2018-02-25T03:02:00.762Z,96121.13
2018-02-25T03:04:29.089Z,96126.35
2018-02-25T03:06:57.443Z,96125.10
2018-02-25T03:09:25.768Z,96123.34
2018-02-25T03:11:54.105Z,96125.58
2018-02-25T03:14:22.428Z,96123.39
2018-02-25T03:16:50.844Z,96130.89
2018-02-25T03:19:19.219Z,96132.39
2018-02-25T03:21:47.667Z,96133.92
2018-02-25T03:24:16.035Z,96139.44
2018-02-25T03:26:44.400Z,96138.03
2018-02-25T03:29:12.731Z,96141.28
2018-02-25T03:31:41.070Z,96142.16
2018-02-25T03:34:09.414Z,96138.23
2018-02-25T03:36:37.743Z,96126.16
2018-02-25T03:39:06.207Z,96130.16
2018-02-25T03:41:34.523Z,96136.63
2018-02-25T03:44:02.887Z,96127.92
2018-02-25T03:46:31.264Z,96135.22
2018-02-25T03:48:59.590Z,96139.54
2018-02-25T03:51:27.928Z,96136.89
2018-02-25T03:53:56.261Z,96138.97
2018-02-25T03:56:24.647Z,96145.69
2018-02-25T03:58:52.999Z,96134.39
2018-02-25T04:01:21.451Z,96141.72
2018-02-25T04:03:49.812Z,96145.70
2018-02-25T04:06:18.143Z,96137.30
2018-02-25T04:08:46.478Z,96138.97
2018-02-25T04:11:14.819Z,96144.70
2018-02-25T04:13:43.199Z,96150.31
2018-02-25T04:16:11.555Z,96155.21
2018-02-25T04:18:39.882Z,96152.98
2018-02-25T04:21:08.375Z,96158.61
2018-02-25T04:23:36.691Z,96158.84
2018-02-25T04:26:05.132Z,96161.92
2018-02-25T04:28:33.439Z,96163.98
2018-02-25T04:31:01.839Z,96160.19
2018-02-25T04:33:30.122Z,96157.86
2018-02-25T04:35:58.476Z,96161.67
2018-02-25T04:38:26.875Z,96165.41
2018-02-25T04:40:55.223Z,96163.28
2018-02-25T04:43:23.573Z,96165.88
2018-02-25T04:45:52.077Z,96170.82
2018-02-25T04:48:20.499Z,96161.66
2018-02-25T04:50:48.817Z,96164.67
2018-02-25T04:53:17.159Z,96164.34
2018-02-25T04:55:45.486Z,96167.91
2018-02-25T04:58:13.843Z,96162.86
2018-02-25T05:00:42.168Z,96169.86
2018-02-25T05:03:10.599Z,96169.91
2018-02-25T05:05:38.979Z,96166.66
2018-02-25T05:08:07.318Z,96173.08
2018-02-25T05:10:35.646Z,96172.06
2018-02-25T05:13:03.990Z,96172.72
2018-02-25T05:15:32.306Z,96174.38
2018-02-25T05:18:00.669Z,96173.01
2018-02-25T05:20:29.027Z,96169.56
2018-02-25T05:22:57.479Z,96163.11
2018-02-25T05:25:25.797Z,96166.05
2018-02-25T05:27:54.181Z,96169.44
2018-02-25T05:30:22.483Z,96163.41
2018-02-25T05:32:50.840Z,96166.90
2018-02-25T05:35:19.186Z,96172.81
2018-02-25T05:37:47.502Z,96169.25
2018-02-25T05:40:15.850Z,96169.02
2018-02-25T05:42:44.211Z,96173.00
2018-02-25T05:45:12.581Z,96164.57
2018-02-25T05:47:41.002Z,96169.02
2018-02-25T05:50:09.384Z,96168.37
2018-02-25T05:52:37.749Z,96163.16
2018-02-25T05:55:06.110Z,96169.11
2018-02-25T05:57:34.433Z,96174.98
2018-02-25T06:00:02.864Z,96176.19
2018-02-25T06:02:31.184Z,96176.38
2018-02-25T06:04:59.524Z,96176.48
2018-02-25T06:07:28.515Z,96168.42
2018-02-25T06:09:56.987Z,96183.04
2018-02-25T06:12:25.364Z,96177.72
2018-02-25T06:14:53.739Z,96181.05
2018-02-25T06:17:22.133Z,96185.20
2018-02-25T06:19:50.447Z,96185.77
2018-02-25T06:22:18.916Z,96193.36
2018-02-25T06:24:47.295Z,96190.12
2018-02-25T06:27:15.761Z,96195.91
2018-02-25T06:29:44.096Z,96188.33
2018-02-25T06:32:12.460Z,96188.27
2018-02-25T06:34:40.796Z,96184.07
2018-02-25T06:37:09.105Z,96186.24
2018-02-25T06:39:37.463Z,96192.48
2018-02-25T06:42:05.781Z,96196.64
2018-02-25T06:44:34.128Z,96193.31
2018-02-25T06:47:02.471Z,96198.69
2018-02-25T06:49:30.874Z,96192.17
2018-02-25T06:51:59.180Z,96200.59
2018-02-25T06:54:27.632Z,96209.38
2018-02-25T06:56:55.978Z,96197.84
2018-02-25T06:59:24.326Z,96200.87
2018-02-25T07:01:52.727Z,96202.86
2018-02-25T07:04:21.059Z,96202.84
2018-02-25T07:06:49.406Z,96206.47
2018-02-25T07:09:17.800Z,96202.25
2018-02-25T07:11:46.122Z,96196.92
2018-02-25T07:14:14.520Z,96203.64
2018-02-25T07:16:42.898Z,96199.16
2018-02-25T07:19:11.272Z,96200.63
2018-02-25T07:21:39.670Z,96196.38
2018-02-25T07:24:07.991Z,96197.94
2018-02-25T07:26:36.395Z,96202.84
2018-02-25T07:29:04.711Z,96196.19
2018-02-25T07:31:34.100Z,96202.63
2018-02-25T07:34:02.427Z,96190.96
2018-02-25T07:36:30.789Z,96193.27
2018-02-25T07:38:59.169Z,96183.21
2018-02-25T07:41:27.603Z,96196.13
2018-02-25T07:43:55.994Z,96185.70
2018-02-25T07:46:24.310Z,96188.33
2018-02-25T07:48:52.655Z,96184.88
2018-02-25T07:51:20.971Z,96185.34
2018-02-25T07:53:49.402Z,96187.43
2018-02-25T07:56:17.717Z,96183.89
2018-02-25T07:58:46.154Z,96184.21
2018-02-25T08:01:14.563Z,96191.86
2018-02-25T08:03:42.914Z,96184.14
2018-02-25T08:06:11.286Z,96193.72
2018-02-25T08:08:39.640Z,96192.28
2018-02-25T08:11:07.961Z,96192.29
2018-02-25T08:13:36.452Z,96194.69
2018-02-25T08:16:04.687Z,96195.92
2018-02-25T08:18:33.113Z,96200.05
2018-02-25T08:21:01.494Z,96199.73
2018-02-25T08:23:29.800Z,96200.16
2018-02-25T08:25:58.202Z,96195.98
2018-02-25T08:28:26.532Z,96202.81
2018-02-25T08:30:54.959Z,96189.98
2018-02-25T08:33:23.382Z,96205.89
2018-02-25T08:35:51.709Z,96207.66
2018-02-25T08:38:20.140Z,96210.41
2018-02-25T08:40:48.520Z,96210.41
2018-02-25T08:43:16.850Z,96202.49
2018-02-25T08:45:45.228Z,96202.95
2018-02-25T08:48:13.568Z,96202.38
2018-02-25T08:50:41.875Z,96204.77
2018-02-25T08:53:10.267Z,96197.73
2018-02-25T08:55:38.684Z,96202.08
2018-02-25T08:58:07.019Z,96196.02
2018-02-25T09:00:35.341Z,96197.39
2018-02-25T09:03:03.719Z,96200.00
2018-02-25T09:05:32.014Z,96200.55
2018-02-25T09:08:00.376Z,96203.06
2018-02-25T09:10:28.750Z,96200.92
2018-02-25T09:12:57.082Z,96195.41
2018-02-25T09:15:25.470Z,96205.83
2018-02-25T09:17:53.890Z,96200.01
2018-02-25T09:20:22.206Z,96204.41
2018-02-25T09:22:50.614Z,96203.14
2018-02-25T09:25:18.949Z,96206.97
2018-02-25T09:27:47.283Z,96213.31
2018-02-25T09:30:15.591Z,96206.28
2018-02-25T09:32:43.944Z,96205.69
2018-02-25T09:35:12.325Z,96205.19
2018-02-25T09:37:40.681Z,96206.64
2018-02-25T09:40:09.082Z,96203.30
2018-02-25T09:42:37.415Z,96203.25
2018-02-25T09:45:05.811Z,96196.62
2018-02-25T09:47:34.188Z,96191.80
2018-02-25T09:50:02.509Z,96192.12
2018-02-25T09:52:30.821Z,96194.17
2018-02-25T09:54:59.167Z,96188.44
2018-02-25T09:57:27.488Z,96200.66
2018-02-25T09:59:55.833Z,96200.72
2018-02-25T10:02:24.250Z,96200.11
2018-02-25T10:04:52.613Z,96197.72
2018-02-25T10:07:20.942Z,96191.86
2018-02-25T10:09:49.304Z,96197.27
2018-02-25T10:12:17.690Z,96202.92
2018-02-25T10:14:46.029Z,96193.14
2018-02-25T10:17:14.394Z,96193.30
2018-02-25T10:19:42.733Z,96188.44
2018-02-25T10:22:11.166Z,96191.53
2018-02-25T10:24:39.490Z,96191.53
2018-02-25T10:27:07.834Z,96190.48
2018-02-25T10:29:36.210Z,96191.06
2018-02-25T10:32:04.558Z,96195.13
2018-02-25T10:34:33.107Z,96183.20
2018-02-25T10:37:01.444Z,96182.69
2018-02-25T10:39:29.796Z,96185.90
2018-02-25T10:41:58.239Z,96184.75
2018-02-25T10:44:26.543Z,96171.27
2018-02-25T10:46:54.976Z,96168.52
2018-02-25T10:49:23.334Z,96173.61
2018-02-25T10:51:51.786Z,96169.20
2018-02-25T10:54:20.098Z,96163.27
2018-02-25T10:56:48.476Z,96162.33
2018-02-25T10:59:16.821Z,96158.48
2018-02-25T11:01:45.228Z,96157.89
2018-02-25T11:04:13.573Z,96152.86
2018-02-25T11:06:42.006Z,96151.45
2018-02-25T11:09:10.364Z,96152.01
2018-02-25T11:11:38.693Z,96158.30
2018-02-25T11:14:07.060Z,96141.44
2018-02-25T11:16:35.378Z,96146.91
2018-02-25T11:19:03.732Z,96145.37
2018-02-25T11:21:32.087Z,96145.52
2018-02-25T11:24:00.439Z,96142.41
2018-02-25T11:26:28.752Z,96144.59
2018-02-25T11:28:57.099Z,96150.24
2018-02-25T11:31:25.553Z,96148.52
2018-02-25T11:33:53.778Z,96141.73
2018-02-25T11:36:22.154Z,96143.25
2018-02-25T11:38:50.475Z,96137.53
2018-02-25T11:41:18.837Z,96136.25
2018-02-25T11:43:47.186Z,96120.67
2018-02-25T11:46:15.518Z,96129.28
2018-02-25T11:48:43.844Z,96122.86
2018-02-25T11:51:12.183Z,96129.56
2018-02-25T11:53:40.516Z,96120.59
2018-02-25T11:56:08.974Z,96123.42
2018-02-25T11:58:37.280Z,96128.98
2018-02-25T12:01:05.851Z,96126.02
2018-02-25T12:03:34.275Z,96118.08
2018-02-25T12:06:02.598Z,96120.53
2018-02-25T12:08:30.968Z,96117.47
2018-02-25T12:10:59.325Z,96113.09
2018-02-25T12:13:27.659Z,96119.45
2018-02-25T12:15:56.022Z,96108.16
2018-02-25T12:18:24.383Z,96103.72
2018-02-25T12:20:52.695Z,96107.51
2018-02-25T12:23:21.136Z,96101.12
2018-02-25T12:25:49.430Z,96091.42
2018-02-25T12:28:17.778Z,96093.31
2018-02-25T12:30:46.081Z,96101.77
2018-02-25T12:33:14.438Z,96096.55
2018-02-25T12:35:42.754Z,96078.28
2018-02-25T12:38:11.090Z,96088.61
2018-02-25T12:40:39.412Z,96090.80
2018-02-25T12:43:07.740Z,96082.99
2018-02-25T12:45:36.073Z,96077.59
2018-02-25T12:48:04.394Z,96085.70
2018-02-25T12:50:32.731Z,96080.11
2018-02-25T12:53:01.057Z,96082.89
2018-02-25T12:55:29.396Z,96067.79
2018-02-25T12:57:57.735Z,96071.50
2018-02-25T13:00:26.239Z,96062.43
2018-02-25T13:02:54.567Z,96072.36
2018-02-25T13:05:22.957Z,96057.32
2018-02-25T13:07:51.263Z,96060.37
2018-02-25T13:10:19.610Z,96055.77
2018-02-25T13:12:47.926Z,96060.41
2018-02-25T13:15:16.278Z,96057.62
2018-02-25T13:17:44.744Z,96063.91
2018-02-25T13:20:13.052Z,96063.23
2018-02-25T13:22:41.499Z,96060.56
2018-02-25T13:25:09.838Z,96057.23
2018-02-25T13:27:38.179Z,96055.33
2018-02-25T13:30:06.500Z,96058.48
2018-02-25T13:32:34.859Z,96049.93
2018-02-25T13:35:03.199Z,96048.44
2018-02-25T13:37:31.566Z,96046.56
2018-02-25T13:39:59.874Z,96048.06
2018-02-25T13:42:28.211Z,96052.56
2018-02-25T13:44:56.550Z,96036.86
2018-02-25T13:47:25.021Z,96040.11
2018-02-25T13:49:53.326Z,96042.58
2018-02-25T13:52:21.648Z,96039.73
2018-02-25T13:54:49.986Z,96033.05
2018-02-25T13:57:18.406Z,96042.16
2018-02-25T13:59:46.815Z,96045.59
2018-02-25T14:02:15.134Z,96049.28
2018-02-25T14:04:45.638Z,96042.91
2018-02-25T14:07:13.972Z,96042.61
2018-02-25T14:09:42.327Z,96036.69
2018-02-25T14:12:10.706Z,96043.49
2018-02-25T14:14:39.048Z,96042.01
2018-02-25T14:17:07.371Z,96045.06
2018-02-25T14:19:35.716Z,96038.98
2018-02-25T14:22:04.062Z,96037.81
2018-02-25T14:24:32.390Z,96036.88
2018-02-25T14:27:00.770Z,96039.01
2018-02-25T14:29:29.085Z,96040.33
2018-02-25T14:31:57.431Z,96032.51
2018-02-25T14:34:25.798Z,96030.86
2018-02-25T14:36:54.146Z,96037.25
2018-02-25T14:39:22.469Z,96038.33
2018-02-25T14:41:50.798Z,96033.37
2018-02-25T14:44:19.150Z,96035.81
2018-02-25T14:46:47.504Z,96041.27
2018-02-25T14:49:15.977Z,96038.75
2018-02-25T14:51:44.316Z,96043.65
2018-02-25T14:54:12.655Z,96037.13
2018-02-25T14:56:41.015Z,96040.86
2018-02-25T14:59:09.332Z,96036.02
2018-02-25T15:01:37.659Z,96044.44
2018-02-25T15:04:06.001Z,96042.05
2018-02-25T15:06:34.559Z,96038.30
2018-02-25T15:09:02.983Z,96035.63
2018-02-25T15:11:31.299Z,96034.20
2018-02-25T15:13:59.655Z,96029.80
2018-02-25T15:16:28.001Z,96030.22
2018-02-25T15:18:56.361Z,96028.92
2018-02-25T15:21:24.690Z,96038.55
2018-02-25T15:23:53.042Z,96034.88
2018-02-25T15:26:21.448Z,96037.25
2018-02-25T15:28:49.786Z,96036.11
2018-02-25T15:31:18.108Z,96030.87
2018-02-25T15:33:46.448Z,96034.94
2018-02-25T15:36:15.021Z,96046.96
2018-02-25T15:38:43.367Z,96048.92
2018-02-25T15:41:11.717Z,96048.69
2018-02-25T15:43:40.079Z,96044.83
2018-02-25T15:46:08.438Z,96045.34
2018-02-25T15:48:36.758Z,96043.48
2018-02-25T15:51:05.115Z,96050.71
2018-02-25T15:53:33.431Z,96046.94
2018-02-25T15:56:01.771Z,96048.66
2018-02-25T15:58:30.131Z,96035.80
2018-02-25T16:00:58.540Z,96048.48
2018-02-25T16:03:26.890Z,96046.53
2018-02-25T16:05:55.228Z,96058.77
2018-02-25T16:08:23.556Z,96059.95
2018-02-25T16:10:51.954Z,96063.89
2018-02-25T16:13:20.268Z,96057.78
2018-02-25T16:15:48.634Z,96068.73
2018-02-25T16:18:17.663Z,96063.32
2018-02-25T16:20:46.673Z,96069.91
2018-02-25T16:23:15.020Z,96066.78
2018-02-25T16:25:43.559Z,96076.91
2018-02-25T16:28:12.003Z,96072.88
2018-02-25T16:30:40.358Z,96068.95
2018-02-25T16:33:08.793Z,96067.10
2018-02-25T16:35:37.102Z,96069.31
2018-02-25T16:38:05.446Z,96075.39
2018-02-25T16:40:33.796Z,96074.69
2018-02-25T16:43:02.122Z,96076.67
2018-02-25T16:45:30.450Z,96073.09
2018-02-25T16:47:58.872Z,96080.31
2018-02-25T16:50:27.171Z,96079.82
2018-02-25T16:52:55.617Z,96087.34
2018-02-25T16:55:23.964Z,96087.62
2018-02-25T16:57:52.322Z,96095.70
2018-02-25T17:00:20.651Z,96090.03
2018-02-25T17:02:48.960Z,96088.61
2018-02-25T17:05:17.308Z,96098.28
2018-02-25T17:07:45.641Z,96096.86
2018-02-25T17:10:13.975Z,96096.98
2018-02-25T17:12:42.400Z,96098.78
2018-02-25T17:15:10.817Z,96105.86
2018-02-25T17:17:39.192Z,96097.73
2018-02-25T17:20:07.571Z,96102.51
2018-02-25T17:25:10.432Z,96106.55
2018-02-25T17:27:38.763Z,96108.15
2018-02-25T17:30:07.229Z,96107.71
2018-02-25T17:32:35.607Z,96110.59
2018-02-25T17:35:03.927Z,96107.52
2018-02-25T17:37:32.271Z,96109.34
2018-02-25T17:40:00.621Z,96111.34
2018-02-25T17:42:28.943Z,96108.03
2018-02-25T17:44:57.266Z,96108.20
2018-02-25T17:47:25.674Z,96109.64
2018-02-25T17:49:53.990Z,96108.44
2018-02-25T17:52:22.335Z,96116.34
2018-02-25T17:54:50.662Z,96115.00
2018-02-25T17:57:19.020Z,96108.65
2018-02-25T17:59:47.336Z,96120.13
2018-02-25T18:02:15.677Z,96112.89
2018-02-25T18:04:44.000Z,96113.20
2018-02-25T18:07:12.560Z,96112.78
2018-02-25T18:09:40.895Z,96115.36
2018-02-25T18:12:09.238Z,96112.45
2018-02-25T18:14:37.591Z,96113.56
2018-02-25T18:17:05.975Z,96120.73
2018-02-25T18:19:34.470Z,96116.55
2018-02-25T18:22:02.779Z,96122.50
2018-02-25T18:24:31.244Z,96125.97
2018-02-25T18:26:59.550Z,96130.90
2018-02-25T18:29:27.898Z,96124.98
2018-02-25T18:31:56.193Z,96124.13
2018-02-25T18:34:24.546Z,96127.39
2018-02-25T18:36:52.936Z,96126.22
2018-02-25T18:39:21.274Z,96123.70
2018-02-25T18:41:49.660Z,96127.42
2018-02-25T18:44:18.024Z,96120.04
2018-02-25T18:46:46.460Z,96126.47
2018-02-25T18:49:14.811Z,96131.98
2018-02-25T18:51:43.151Z,96135.03
2018-02-25T18:54:11.549Z,96130.11
2018-02-25T18:56:39.895Z,96134.69
2018-02-25T18:59:08.223Z,96136.91
2018-02-25T19:01:36.612Z,96141.68
2018-02-25T19:04:04.994Z,96139.33
2018-02-25T19:06:33.369Z,96145.37
2018-02-25T19:09:01.723Z,96141.64
2018-02-25T19:11:30.125Z,96145.27
2018-02-25T19:13:58.442Z,96140.81
2018-02-25T19:16:26.942Z,96143.04
2018-02-25T19:18:55.361Z,96143.88
2018-02-25T19:21:23.717Z,96140.73
2018-02-25T19:23:52.030Z,96141.22
2018-02-25T19:26:20.361Z,96140.47
2018-02-25T19:28:48.773Z,96137.59
2018-02-25T19:31:17.091Z,96134.98
2018-02-25T19:33:45.418Z,96136.21
2018-02-25T19:36:19.182Z,96137.67
2018-02-25T19:38:53.047Z,96134.84
2018-02-25T19:41:26.799Z,96137.97
2018-02-25T19:43:55.151Z,96138.48
2018-02-25T19:46:23.556Z,96145.75
2018-02-25T19:48:51.939Z,96145.13
2018-02-25T19:51:20.255Z,96140.48
2018-02-25T19:53:48.622Z,96144.70
2018-02-25T19:56:16.935Z,96145.20
2018-02-25T19:58:45.304Z,96144.36
2018-02-25T20:01:13.642Z,96147.78
2018-02-25T20:03:41.964Z,96145.73
2018-02-25T20:06:10.306Z,96147.88
2018-02-25T20:08:38.662Z,96151.80
2018-02-25T20:11:07.024Z,96150.58
2018-02-25T20:13:35.351Z,96149.12
2018-02-25T20:16:03.730Z,96155.91
2018-02-25T20:18:32.073Z,96144.13
2018-02-25T20:21:00.419Z,96153.34
2018-02-25T20:23:28.743Z,96153.47
2018-02-25T20:25:57.097Z,96156.14
2018-02-25T20:28:25.487Z,96152.58
2018-02-25T20:30:53.859Z,96156.03
2018-02-25T20:33:22.265Z,96150.11
2018-02-25T20:35:50.624Z,96156.41
2018-02-25T20:38:18.971Z,96151.31
2018-02-25T20:40:47.298Z,96153.73
2018-02-25T20:43:15.642Z,96150.81
2018-02-25T20:45:44.026Z,96143.95
2018-02-25T20:48:12.370Z,96148.06
2018-02-25T20:50:40.712Z,96150.88
2018-02-25T20:53:09.098Z,96149.02
2018-02-25T20:55:37.476Z,96140.78
2018-02-25T20:58:05.811Z,96148.61
2018-02-25T21:00:34.139Z,96148.05
2018-02-25T21:03:02.508Z,96146.05
2018-02-25T21:05:30.830Z,96151.30
2018-02-25T21:07:59.257Z,96147.70
2018-02-25T21:10:27.567Z,96144.28
2018-02-25T21:12:55.897Z,96153.46
2018-02-25T21:15:24.246Z,96154.08
2018-02-25T21:17:52.574Z,96160.92
2018-02-25T21:20:20.952Z,96157.25
2018-02-25T21:22:49.400Z,96156.11
2018-02-25T21:25:17.764Z,96156.58
2018-02-25T21:27:46.190Z,96152.37
2018-02-25T21:30:14.676Z,96153.90
2018-02-25T21:32:43.032Z,96155.29
2018-02-25T21:35:11.427Z,96157.25
2018-02-25T21:37:39.785Z,96150.70
2018-02-25T21:40:08.216Z,96156.67
2018-02-25T21:42:36.547Z,96148.91
2018-02-25T21:45:04.940Z,96150.10
2018-02-25T21:47:33.254Z,96154.38
2018-02-25T21:50:01.655Z,96150.86
2018-02-25T21:52:29.987Z,96151.73
2018-02-25T21:54:58.315Z,96148.23
2018-02-25T21:57:32.337Z,96152.16
2018-02-25T22:00:06.402Z,96149.84
2018-02-25T22:02:40.363Z,96145.20
2018-02-25T22:05:08.706Z,96148.84
2018-02-25T22:07:37.051Z,96143.38
2018-02-25T22:10:05.392Z,96146.36
2018-02-25T22:12:33.742Z,96144.33
2018-02-25T22:15:02.064Z,96141.83
2018-02-25T22:17:30.447Z,96142.92
2018-02-25T22:19:58.764Z,96144.55
2018-02-25T22:22:27.111Z,96142.61
2018-02-25T22:24:55.502Z,96130.53
2018-02-25T22:27:23.808Z,96137.45
2018-02-25T22:29:52.213Z,96128.45
2018-02-25T22:32:20.555Z,96129.97
2018-02-25T22:34:48.885Z,96131.84
2018-02-25T22:37:17.222Z,96125.59
2018-02-25T22:39:45.534Z,96127.25
2018-02-25T22:42:13.862Z,96123.03
2018-02-25T22:44:42.303Z,96129.44
2018-02-25T22:47:10.738Z,96124.69
2018-02-25T22:49:39.088Z,96124.69
2018-02-25T22:52:07.398Z,96121.30
2018-02-25T22:54:35.796Z,96122.70
2018-02-25T22:57:04.114Z,96127.41
2018-02-25T22:59:32.532Z,96126.06
2018-02-25T23:02:00.861Z,96131.10
2018-02-25T23:04:29.329Z,96131.47
2018-02-25T23:06:57.645Z,96124.70
2018-02-25T23:09:25.983Z,96121.50
2018-02-25T23:11:54.339Z,96121.96
2018-02-25T23:14:23.131Z,96128.29
2018-02-25T23:16:51.484Z,96120.38
2018-02-25T23:19:19.858Z,96126.51
2018-02-25T23:21:48.184Z,96123.03
2018-02-25T23:24:16.526Z,96120.47
2018-02-25T23:26:44.864Z,96123.80
2018-02-25T23:29:13.182Z,96123.63
2018-02-25T23:31:41.555Z,96121.29
2018-02-25T23:34:09.931Z,96121.66
2018-02-25T23:36:38.314Z,96118.97
2018-02-25T23:39:06.642Z,96118.05
2018-02-25T23:41:34.997Z,96116.66
2018-02-25T23:44:03.386Z,96118.31
2018-02-25T23:46:31.863Z,96121.52
2018-02-25T23:49:00.175Z,96114.52
2018-02-25T23:51:28.692Z,96108.84
2018-02-25T23:53:57.059Z,96112.49
2018-02-25T23:56:25.447Z,96111.98
2018-02-25T23:58:53.775Z,96110.82
